createdAt,value
2023-02-14T00:02:16.159Z,12.35
2023-02-14T00:07:18.013Z,12.30
2023-02-14T00:12:19.846Z,11.75
2023-02-14T00:17:21.619Z,12.80
2023-02-14T00:22:23.436Z,11.90
2023-02-14T00:27:25.155Z,11.63
2023-02-14T00:32:26.923Z,12.88
2023-02-14T00:37:28.685Z,10.68
2023-02-14T00:42:30.459Z,10.80
2023-02-14T00:47:32.450Z,10.88
2023-02-14T00:52:34.291Z,12.43
2023-02-14T00:57:36.180Z,11.05
2023-02-14T01:02:39.843Z,11.95
2023-02-14T01:07:43.127Z,12.57
2023-02-14T01:12:45.502Z,11.52
2023-02-14T01:17:47.287Z,12.13
2023-02-14T01:22:49.181Z,10.38
2023-02-14T01:27:51.050Z,14.15
2023-02-14T01:32:52.838Z,11.38
2023-02-14T01:37:55.876Z,11.35
2023-02-14T01:42:57.594Z,12.85
2023-02-14T01:47:59.610Z,11.07
2023-02-14T01:53:05.543Z,11.52
2023-02-14T01:58:21.734Z,13.80
2023-02-14T02:03:31.260Z,12.77
2023-02-14T02:08:37.146Z,13.60
2023-02-14T02:13:38.904Z,10.52
2023-02-14T02:18:43.716Z,11.85
2023-02-14T02:24:11.722Z,11.57
2023-02-14T02:35:05.528Z,13.07
2023-02-14T02:40:33.692Z,12.95
2023-02-14T02:46:17.114Z,10.25
2023-02-14T02:52:06.050Z,12.25
2023-02-14T02:57:15.593Z,11.32
2023-02-14T03:02:28.703Z,11.38
2023-02-14T03:07:40.575Z,11.05
2023-02-14T03:13:35.786Z,11.38
2023-02-14T03:19:03.985Z,10.48
2023-02-14T03:24:29.662Z,10.23
2023-02-14T03:29:55.976Z,12.10
2023-02-14T03:35:07.240Z,11.32
2023-02-14T03:40:15.879Z,11.43
2023-02-14T03:45:29.008Z,13.00
2023-02-14T03:50:32.798Z,11.00
2023-02-14T03:55:46.574Z,11.23
2023-02-14T04:00:52.321Z,13.38
2023-02-14T04:05:54.635Z,15.48
2023-02-14T04:11:00.543Z,19.55
2023-02-14T04:16:03.066Z,20.42
2023-02-14T04:21:05.144Z,12.75
2023-02-14T04:26:07.122Z,15.50
2023-02-14T04:31:10.426Z,13.50
2023-02-14T04:36:12.390Z,14.60
2023-02-14T04:41:14.265Z,13.43
2023-02-14T04:46:16.078Z,17.02
2023-02-14T04:51:17.877Z,20.80
2023-02-14T04:56:19.648Z,22.65
2023-02-14T05:01:21.483Z,19.90
2023-02-14T05:06:23.366Z,21.52
2023-02-14T05:11:25.218Z,19.23
2023-02-14T05:16:27.073Z,18.17
2023-02-14T05:21:28.837Z,18.90
2023-02-14T05:26:30.628Z,16.85
2023-02-14T05:31:32.800Z,21.40
2023-02-14T05:36:34.638Z,23.52
2023-02-14T05:46:38.535Z,22.00
2023-02-14T05:51:40.291Z,25.05
2023-02-14T05:56:42.056Z,23.67
2023-02-14T06:01:43.906Z,19.15
2023-02-14T06:06:45.909Z,23.85
2023-02-14T06:11:47.702Z,22.85
2023-02-14T06:16:49.514Z,21.45
2023-02-14T06:21:51.299Z,21.88
2023-02-14T06:26:53.054Z,18.67
2023-02-14T06:31:54.894Z,13.50
2023-02-14T06:36:56.663Z,17.15
2023-02-14T06:41:58.447Z,15.60
2023-02-14T06:47:00.297Z,22.50
2023-02-14T06:52:03.918Z,28.55
2023-02-14T06:57:05.650Z,24.80
2023-02-14T07:02:09.464Z,30.40
2023-02-14T07:07:11.310Z,26.65
2023-02-14T07:12:13.104Z,32.95
2023-02-14T07:17:14.881Z,25.25
2023-02-14T07:22:16.640Z,28.70
2023-02-14T07:27:18.428Z,25.13
2023-02-14T07:32:20.351Z,27.73
2023-02-14T07:37:22.227Z,31.02
2023-02-14T07:42:24.326Z,27.38
2023-02-14T07:47:26.060Z,27.77
2023-02-14T07:52:27.815Z,28.70
2023-02-14T07:57:29.656Z,28.42
2023-02-14T08:02:31.434Z,34.13
2023-02-14T08:07:33.262Z,31.90
2023-02-14T08:12:53.781Z,29.88
2023-02-14T08:17:58.845Z,34.47
2023-02-14T08:23:00.658Z,25.95
2023-02-14T08:28:04.314Z,29.15
2023-02-14T08:33:07.306Z,25.45
2023-02-14T08:38:09.234Z,25.80
2023-02-14T08:43:11.510Z,27.83
2023-02-14T08:48:13.332Z,24.27
2023-02-14T08:53:15.157Z,28.23
2023-02-14T08:58:16.948Z,24.15
2023-02-14T09:03:18.715Z,28.02
2023-02-14T09:08:20.483Z,22.55
2023-02-14T09:13:22.316Z,28.45
2023-02-14T09:18:24.086Z,35.40
2023-02-14T09:23:25.893Z,40.70
2023-02-14T09:28:28.494Z,22.92
2023-02-14T09:33:30.331Z,21.75
2023-02-14T09:38:32.067Z,18.35
2023-02-14T09:43:55.708Z,19.50
2023-02-14T09:48:58.338Z,30.05
2023-02-14T09:54:11.604Z,20.08
2023-02-14T09:59:34.393Z,18.73
2023-02-14T10:04:43.654Z,24.77
2023-02-14T10:10:13.054Z,30.63
2023-02-14T10:15:21.791Z,23.58
2023-02-14T10:20:35.386Z,23.65
2023-02-14T10:26:01.694Z,22.25
2023-02-14T10:31:15.855Z,23.35
2023-02-14T10:36:32.027Z,19.63
2023-02-14T10:41:41.306Z,29.45
2023-02-14T10:47:17.129Z,25.17
2023-02-14T10:52:43.744Z,23.90
2023-02-14T10:57:49.655Z,21.83
2023-02-14T11:02:56.527Z,24.20
2023-02-14T11:08:01.971Z,25.00
2023-02-14T11:13:23.928Z,23.55
2023-02-14T11:18:36.106Z,28.08
2023-02-14T11:23:42.864Z,33.05
2023-02-14T11:29:00.757Z,34.80
2023-02-14T11:39:34.759Z,36.88
2023-02-14T11:44:43.827Z,36.67
2023-02-14T11:49:57.950Z,41.50
2023-02-14T11:55:00.340Z,35.28
2023-02-14T12:00:05.182Z,36.72
2023-02-14T12:05:30.312Z,43.65
2023-02-14T12:10:35.921Z,37.70
2023-02-14T12:15:42.101Z,39.38
2023-02-14T12:21:15.947Z,41.42
2023-02-14T12:26:32.068Z,37.00
2023-02-14T12:31:33.950Z,37.05
2023-02-14T12:36:47.762Z,35.65
2023-02-14T12:42:04.039Z,38.30
2023-02-14T12:47:35.666Z,27.67
2023-02-14T12:53:08.186Z,30.85
2023-02-14T12:58:48.340Z,32.40
2023-02-14T13:03:51.555Z,28.85
2023-02-14T13:09:12.314Z,31.63
2023-02-14T13:14:23.004Z,33.67
2023-02-14T13:19:28.100Z,34.15
2023-02-14T13:24:40.404Z,33.22
2023-02-14T13:29:48.289Z,45.10
2023-02-14T13:34:51.217Z,35.25
2023-02-14T13:40:18.162Z,32.72
2023-02-14T13:45:32.608Z,32.83
2023-02-14T13:50:49.911Z,31.90
2023-02-14T13:55:55.832Z,36.13
2023-02-14T14:00:58.056Z,32.38
2023-02-14T14:06:00.340Z,34.10
2023-02-14T14:11:25.495Z,32.85
2023-02-14T14:16:36.558Z,37.53
2023-02-14T14:21:51.003Z,41.80
2023-02-14T14:27:06.260Z,33.80
2023-02-14T14:32:18.409Z,45.85
2023-02-14T14:37:23.931Z,34.08
2023-02-14T14:42:32.244Z,34.08
2023-02-14T14:47:42.817Z,32.60
2023-02-14T14:52:50.976Z,36.97
2023-02-14T14:57:55.364Z,34.60
2023-02-14T15:03:02.330Z,35.55
2023-02-14T15:08:31.205Z,36.55
2023-02-14T15:13:49.874Z,38.42
2023-02-14T15:18:55.430Z,37.70
2023-02-14T15:23:58.200Z,42.90
2023-02-14T15:29:03.784Z,35.03
2023-02-14T15:34:06.883Z,35.63
2023-02-14T15:39:13.042Z,38.53
2023-02-14T15:44:23.790Z,39.17
2023-02-14T15:49:34.546Z,39.30
2023-02-14T15:54:43.524Z,39.22
2023-02-14T15:59:45.543Z,37.22
2023-02-14T16:04:47.587Z,33.10
2023-02-14T16:09:50.378Z,35.10
2023-02-14T16:15:15.382Z,34.00
2023-02-14T16:20:25.858Z,36.15
2023-02-14T16:25:27.608Z,40.58
2023-02-14T16:30:29.417Z,35.53
2023-02-14T16:35:31.676Z,34.83
2023-02-14T16:40:33.562Z,36.50
2023-02-14T16:45:35.453Z,43.65
2023-02-14T16:50:39.396Z,44.80
2023-02-14T16:55:41.522Z,44.28
2023-02-14T17:00:43.278Z,39.33
2023-02-14T17:05:45.534Z,43.67
2023-02-14T17:10:48.664Z,38.63
2023-02-14T17:15:51.440Z,47.65
2023-02-14T17:20:53.857Z,50.90
2023-02-14T17:25:55.675Z,47.60
2023-02-14T17:31:00.484Z,46.63
2023-02-14T17:36:12.336Z,51.67
2023-02-14T17:41:17.482Z,47.55
2023-02-14T17:46:19.748Z,46.72
2023-02-14T17:51:22.875Z,54.15
2023-02-14T17:56:27.388Z,42.17
2023-02-14T18:01:31.564Z,46.03
2023-02-14T18:06:33.641Z,49.65
2023-02-14T18:11:35.469Z,37.67
2023-02-14T18:16:38.878Z,45.22
2023-02-14T18:21:40.651Z,37.30
2023-02-14T18:26:43.304Z,44.83
2023-02-14T18:31:45.145Z,41.05
2023-02-14T18:36:47.018Z,53.13
2023-02-14T18:41:48.810Z,46.60
2023-02-14T18:46:50.573Z,42.88
2023-02-14T18:51:52.395Z,31.73
2023-02-14T18:56:54.130Z,37.67
2023-02-14T19:01:56.183Z,29.38
2023-02-14T19:06:58.045Z,31.83
2023-02-14T19:12:00.101Z,38.22
2023-02-14T19:17:03.308Z,37.65
2023-02-14T19:22:05.122Z,33.17
2023-02-14T19:27:06.837Z,26.55
2023-02-14T19:32:09.039Z,34.28
2023-02-14T19:37:10.778Z,31.05
2023-02-14T19:42:12.513Z,25.45
2023-02-14T19:47:27.220Z,25.50
2023-02-14T19:52:33.182Z,23.00
2023-02-14T19:57:35.044Z,24.58
2023-02-14T20:02:37.069Z,23.05
2023-02-14T20:07:40.395Z,26.42
2023-02-14T20:12:43.168Z,30.20
2023-02-14T20:17:44.912Z,26.95
2023-02-14T20:22:47.628Z,37.75
2023-02-14T20:27:53.770Z,28.65
2023-02-14T20:32:55.583Z,23.90
2023-02-14T20:38:00.545Z,33.60
2023-02-14T20:43:03.578Z,29.17
2023-02-14T20:48:07.069Z,24.98
2023-02-14T20:53:10.142Z,24.98
2023-02-14T20:58:12.420Z,72.60
2023-02-14T21:03:14.634Z,26.45
2023-02-14T21:08:17.085Z,22.25
2023-02-14T21:13:19.778Z,22.52
2023-02-14T21:18:23.639Z,31.50
2023-02-14T21:23:25.848Z,22.98
2023-02-14T21:28:27.654Z,26.77
2023-02-14T21:33:32.357Z,19.70
2023-02-14T21:38:34.802Z,29.17
2023-02-14T21:43:39.329Z,22.63
2023-02-14T21:49:00.826Z,37.67
2023-02-14T21:54:02.609Z,27.60
2023-02-14T21:59:05.116Z,20.48
2023-02-14T22:04:09.438Z,23.05
2023-02-14T22:09:13.896Z,17.70
2023-02-14T22:14:16.201Z,22.15
2023-02-14T22:19:17.995Z,15.18
2023-02-14T22:24:19.788Z,14.75
2023-02-14T22:29:21.590Z,17.38
2023-02-14T22:34:23.345Z,20.35
2023-02-14T22:39:25.175Z,15.57
2023-02-14T22:44:27.146Z,18.90
2023-02-14T22:49:29.103Z,16.25
2023-02-14T22:54:30.961Z,14.10
2023-02-14T22:59:33.677Z,17.63
2023-02-14T23:04:35.403Z,16.83
2023-02-14T23:09:37.360Z,21.52
2023-02-14T23:14:57.568Z,29.00
2023-02-14T23:20:17.893Z,25.42
2023-02-14T23:25:19.706Z,21.60
2023-02-14T23:30:22.205Z,16.95
2023-02-14T23:35:23.970Z,17.00
2023-02-14T23:40:25.722Z,15.02
2023-02-14T23:45:36.527Z,14.95
2023-02-14T23:50:38.424Z,15.95
2023-02-14T23:55:40.212Z,14.25
